Time;durP1;ratioP1;P1;durP2;ratioP2;P2;SDS_P1;SDS_P2;PMS_P1;PMS_P2;Temp;Humidity;BMP_temperature;BMP_pressure;BME280_temperature;BME280_humidity;BME280_pressure;Samples;Min_cycle;Max_cycle;Signal;HPM_P1;HPM_P2
2022/07/08 00:00:43;;;;;;;1.67;1.58;;;;;;;16.97;80.70;97585.56;5132839;27;20244;-62
2022/07/08 00:03:11;;;;;;;1.27;1.27;;;;;;;16.98;81.17;97576.53;5132797;27;20235;-64
2022/07/08 00:05:43;;;;;;;1.60;1.50;;;;;;;16.98;79.60;97584.56;5133220;27;20196;-64
2022/07/08 00:08:11;;;;;;;2.08;1.88;;;;;;;16.95;79.55;97580.38;5133267;27;20196;-63
2022/07/08 00:10:39;;;;;;;3.00;1.67;;;;;;;16.88;81.46;97566.81;5132765;27;20498;-62
2022/07/08 00:13:06;;;;;;;1.58;1.48;;;;;;;16.77;81.34;97569.78;5132642;27;20236;-62
2022/07/08 00:15:32;;;;;;;1.98;1.52;;;;;;;16.76;81.50;97578.78;5133210;27;20192;-65
2022/07/08 00:17:59;;;;;;;1.70;1.58;;;;;;;16.78;81.34;97575.97;5133322;27;20205;-62
2022/07/08 00:20:28;;;;;;;1.55;1.45;;;;;;;16.72;82.00;97574.75;5132570;27;20231;-63
2022/07/08 00:22:55;;;;;;;2.00;1.90;;;;;;;16.72;81.71;97577.41;5133062;27;20193;-61
2022/07/08 00:25:24;;;;;;;1.40;1.30;;;;;;;16.62;82.17;97586.53;5132938;27;20204;-62
2022/07/08 00:27:51;;;;;;;2.27;1.80;;;;;;;16.59;81.78;97579.69;5133669;27;20201;-65
2022/07/08 00:30:18;;;;;;;1.93;1.70;;;;;;;16.50;83.21;97588.63;5134525;27;20205;-64
2022/07/08 00:32:46;;;;;;;2.35;1.75;;;;;;;16.55;82.39;97580.09;5135292;27;20229;-65
2022/07/08 00:35:13;;;;;;;3.27;1.70;;;;;;;16.52;82.83;97580.44;5134644;27;20224;-64
2022/07/08 00:37:39;;;;;;;2.40;1.90;;;;;;;16.50;82.23;97585.94;5135111;27;20625;-64
2022/07/08 00:40:07;;;;;;;1.67;1.60;;;;;;;16.37;83.46;97585.50;5132012;27;20251;-62
2022/07/08 00:42:35;;;;;;;1.77;1.40;;;;;;;16.36;82.43;97587.34;5133017;27;20227;-63
2022/07/08 00:45:05;;;;;;;1.80;1.70;;;;;;;16.28;83.87;97589.13;5133048;27;20185;-63
2022/07/08 00:47:32;;;;;;;2.73;1.57;;;;;;;16.29;82.61;97588.97;5131676;27;20239;-64
2022/07/08 00:50:00;;;;;;;1.80;1.70;;;;;;;16.17;85.48;97587.53;5131894;27;20216;-60
2022/07/08 00:52:28;;;;;;;2.47;1.70;;;;;;;16.11;85.59;97582.81;5132325;27;20209;-61
2022/07/08 00:54:55;;;;;;;2.10;2.00;;;;;;;16.14;84.61;97582.50;5132185;27;20228;-61
2022/07/08 00:57:22;;;;;;;1.73;1.63;;;;;;;16.16;83.38;97585.00;5131792;27;20236;-62
2022/07/08 00:59:51;;;;;;;2.17;1.97;;;;;;;16.11;83.70;97581.97;5132093;28;20216;-62
2022/07/08 01:02:18;;;;;;;2.23;1.70;;;;;;;16.11;83.01;97585.50;5132215;27;20363;-59
2022/07/08 01:04:46;;;;;;;2.00;1.80;;;;;;;16.03;83.51;97584.56;5131550;28;20232;-61
2022/07/08 01:07:13;;;;;;;1.73;1.63;;;;;;;15.98;86.52;97590.34;5132144;28;20539;-62
2022/07/08 01:09:40;;;;;;;1.87;1.77;;;;;;;16.00;87.39;97584.88;5131164;28;20612;-62
2022/07/08 01:12:09;;;;;;;2.10;1.80;;;;;;;16.01;86.91;97578.56;5131751;27;20246;-63
2022/07/08 01:14:36;;;;;;;2.87;1.80;;;;;;;16.01;87.95;97579.41;5147649;28;20200;-64
2022/07/08 01:17:04;;;;;;;1.77;1.67;;;;;;;16.08;86.12;97579.63;5141184;28;20200;-63
2022/07/08 01:19:33;;;;;;;1.80;1.70;;;;;;;16.14;84.58;97581.66;5145549;28;20363;-63
2022/07/08 01:22:03;;;;;;;1.70;1.60;;;;;;;16.07;85.43;97585.94;5132966;28;20279;-63
2022/07/08 01:24:29;;;;;;;2.00;1.90;;;;;;;16.01;86.90;97583.91;5132339;28;20215;-63
2022/07/08 01:26:56;;;;;;;1.97;1.87;;;;;;;16.07;87.35;97583.28;5131846;28;20220;-61
2022/07/08 01:29:23;;;;;;;2.10;2.00;;;;;;;16.08;86.50;97583.13;5131680;27;20245;-62
2022/07/08 01:31:53;;;;;;;1.77;1.57;;;;;;;16.11;87.29;97584.66;5131401;28;20261;-63
2022/07/08 01:34:20;;;;;;;6.60;1.87;;;;;;;16.11;88.00;97582.81;5131939;28;20188;-63
2022/07/08 01:36:47;;;;;;;1.80;1.70;;;;;;;16.19;86.69;97590.06;5132035;28;20304;-63
2022/07/08 01:39:17;;;;;;;1.63;1.63;;;;;;;16.20;86.31;97586.38;5132056;28;20227;-64
2022/07/08 01:41:44;;;;;;;3.40;2.20;;;;;;;16.16;86.80;97585.00;5132070;28;20220;-63
2022/07/08 01:44:13;;;;;;;2.50;2.03;;;;;;;16.23;87.67;97589.56;5131947;28;20276;-64
2022/07/08 01:46:40;;;;;;;2.47;2.17;;;;;;;16.30;86.17;97590.63;5131305;28;20205;-63
2022/07/08 01:49:07;;;;;;;2.13;2.00;;;;;;;16.29;86.61;97590.81;5131796;28;20622;-63
2022/07/08 01:51:36;;;;;;;2.20;2.10;;;;;;;16.29;87.53;97583.63;5131931;27;20603;-63
2022/07/08 01:54:03;;;;;;;2.83;1.70;;;;;;;16.33;89.03;97581.50;5130975;28;20648;-63
2022/07/08 01:56:31;;;;;;;3.87;2.30;;;;;;;16.35;87.02;97590.16;5131182;28;20197;-64
2022/07/08 01:58:58;;;;;;;1.80;1.70;;;;;;;16.37;86.30;97588.16;5131170;28;20645;-63
2022/07/08 02:01:25;;;;;;;2.53;1.80;;;;;;;16.41;87.53;97581.53;5132084;28;20542;-62
2022/07/08 02:03:52;;;;;;;2.07;1.90;;;;;;;16.45;86.63;97585.56;5131021;28;20204;-62
2022/07/08 02:06:18;;;;;;;2.93;1.90;;;;;;;16.47;85.77;97588.94;5132114;27;20205;-63
2022/07/08 02:08:45;;;;;;;2.13;1.93;;;;;;;16.41;87.27;97589.53;5135338;27;20204;-63
2022/07/08 02:13:58;;;;;;;5.40;2.07;;;;;;;16.43;87.15;97600.91;5135390;27;20724;-63
2022/07/08 02:16:25;;;;;;;2.17;1.83;;;;;;;16.45;87.24;97598.91;5135506;27;20193;-64
2022/07/08 02:18:54;;;;;;;2.07;1.87;;;;;;;16.50;87.66;97603.78;5134960;27;20204;-63
2022/07/08 02:21:23;;;;;;;2.77;1.70;;;;;;;16.49;86.34;97597.59;5135239;27;20211;-63
2022/07/08 02:23:50;;;;;;;1.80;1.63;;;;;;;16.49;86.94;97581.59;5134842;27;20242;-63
2022/07/08 02:26:16;;;;;;;1.83;1.73;;;;;;;16.52;85.68;97591.09;5135484;27;20196;-62
2022/07/08 02:28:43;;;;;;;1.53;1.53;;;;;;;16.51;86.51;97589.47;5134370;27;20316;-62
2022/07/08 02:31:12;;;;;;;3.70;2.00;;;;;;;16.53;86.76;97593.63;5134388;27;20573;-63
2022/07/08 02:33:39;;;;;;;2.03;1.93;;;;;;;16.57;85.91;97589.69;5134887;27;20204;-62
2022/07/08 02:36:06;;;;;;;1.93;1.83;;;;;;;16.57;87.36;97600.38;5134704;27;20200;-63
2022/07/08 02:38:34;;;;;;;1.90;1.80;;;;;;;16.50;87.48;97601.97;5134451;27;20236;-63
2022/07/08 02:41:01;;;;;;;1.73;1.60;;;;;;;16.46;87.12;97600.59;5134645;27;20224;-62
2022/07/08 02:43:31;;;;;;;2.57;1.60;;;;;;;16.46;85.67;97603.25;5134487;27;20223;-63
2022/07/08 02:45:58;;;;;;;3.17;1.90;;;;;;;16.45;85.34;97606.91;5135103;27;20211;-63
2022/07/08 02:48:30;;;;;;;1.60;1.60;;;;;;;16.49;85.55;97607.44;5134536;27;20208;-63
2022/07/08 02:50:57;;;;;;;1.77;1.60;;;;;;;16.49;86.98;97607.44;5135070;27;20184;-63
2022/07/08 02:53:24;;;;;;;2.40;1.57;;;;;;;16.51;85.87;97619.63;5134674;27;20236;-61
2022/07/08 02:55:52;;;;;;;1.73;1.60;;;;;;;16.52;83.86;97624.00;5134186;27;20207;-63
2022/07/08 02:58:18;;;;;;;1.53;1.43;;;;;;;16.55;83.72;97623.69;5134941;27;20580;-62
2022/07/08 03:00:47;;;;;;;1.87;1.77;;;;;;;16.59;83.96;97627.75;5135210;27;20228;-58
2022/07/08 03:03:14;;;;;;;1.80;1.70;;;;;;;16.62;83.14;97623.91;5134845;27;20242;-62
2022/07/08 03:05:43;;;;;;;1.47;1.37;;;;;;;16.58;84.38;97628.72;5135459;27;20188;-63
2022/07/08 03:08:14;;;;;;;1.60;1.50;;;;;;;16.58;85.23;97628.72;5135242;27;20208;-62
2022/07/08 03:10:41;;;;;;;2.58;2.03;;;;;;;16.61;83.92;97625.78;5135375;27;20200;-62
2022/07/08 03:13:07;;;;;;;1.67;1.57;;;;;;;16.57;84.15;97635.09;5135610;27;20220;-62
2022/07/08 03:15:35;;;;;;;1.67;1.57;;;;;;;16.56;84.47;97636.06;5134052;27;20193;-63
2022/07/08 03:18:07;;;;;;;3.00;1.27;;;;;;;16.56;85.88;97646.75;5134785;27;20235;-63
2022/07/08 03:20:33;;;;;;;1.77;1.63;;;;;;;16.56;85.07;97646.75;5135121;27;20236;-63
2022/07/08 03:23:01;;;;;;;1.90;1.80;;;;;;;16.56;84.39;97641.41;5134340;27;20200;-63
2022/07/08 03:25:29;;;;;;;1.70;1.60;;;;;;;16.61;80.54;97639.13;5139906;27;20187;-57
2022/07/08 03:27:56;;;;;;;2.27;1.40;;;;;;;16.68;80.88;97639.34;5159310;27;20181;-58
2022/07/08 03:30:22;;;;;;;1.10;1.10;;;;;;;16.66;80.77;97643.97;5147459;27;20196;-57
2022/07/08 03:32:54;;;;;;;2.37;1.40;;;;;;;16.69;79.76;97647.19;5144290;27;20211;-57
2022/07/08 03:35:21;;;;;;;1.20;1.10;;;;;;;16.71;80.13;97645.22;5140415;27;20202;-58
2022/07/08 03:37:49;;;;;;;1.80;1.70;;;;;;;16.69;80.75;97647.19;5141870;27;20196;-57
2022/07/08 03:43:01;;;;;;;1.15;1.08;;;;;;;16.67;81.46;97659.03;5136242;27;20304;-57
2022/07/08 03:45:28;;;;;;;3.58;3.28;;;;;;;16.68;81.27;97658.03;5139999;27;20272;-58
2022/07/08 03:47:56;;;;;;;2.53;1.90;;;;;;;16.74;80.35;97665.41;5136743;27;20234;-57
2022/07/08 03:50:23;;;;;;;2.58;1.60;;;;;;;16.71;80.29;97663.91;5136590;27;20200;-57
2022/07/08 03:52:52;;;;;;;1.43;1.40;;;;;;;16.77;78.45;97667.78;5139730;27;20281;-56
2022/07/08 03:55:22;;;;;;;2.80;1.47;;;;;;;16.74;78.44;97668.94;5142603;27;20215;-55
2022/07/08 03:57:48;;;;;;;1.70;1.60;;;;;;;16.65;79.95;97677.84;5157775;27;20196;-57
2022/07/08 04:00:17;;;;;;;1.48;1.38;;;;;;;16.57;80.74;97672.47;5159820;27;20215;-56
2022/07/08 04:02:44;;;;;;;2.00;1.53;;;;;;;16.48;81.90;97678.69;5160740;27;20204;-57
2022/07/08 04:05:10;;;;;;;2.60;1.87;;;;;;;16.38;82.85;97680.63;5160895;27;20236;-56
2022/07/08 04:07:37;;;;;;;2.20;1.43;;;;;;;16.28;83.90;97679.88;5160389;27;20197;-56
2022/07/08 04:10:08;;;;;;;1.53;1.43;;;;;;;16.24;84.82;97689.16;5155320;27;20208;-57
2022/07/08 04:12:36;;;;;;;1.77;1.60;;;;;;;16.19;85.14;97683.47;5157838;27;20175;-57
2022/07/08 04:15:03;;;;;;;1.55;1.45;;;;;;;16.25;84.76;97685.53;5158270;27;20196;-57
2022/07/08 04:17:30;;;;;;;1.50;1.50;;;;;;;16.27;83.28;97686.19;5151322;27;20196;-57
2022/07/08 04:19:56;;;;;;;1.77;1.67;;;;;;;16.21;83.09;97689.47;5153994;27;20234;-57
2022/07/08 04:22:23;;;;;;;1.80;1.70;;;;;;;16.19;84.49;97691.47;5133291;27;20208;-57
2022/07/08 04:24:50;;;;;;;2.50;1.17;;;;;;;16.12;83.98;97695.75;5132844;27;20192;-57
2022/07/08 04:27:18;;;;;;;1.67;1.60;;;;;;;16.17;82.90;97690.78;5132922;27;20239;-58
2022/07/08 04:29:48;;;;;;;1.50;1.40;;;;;;;16.14;84.07;97699.94;5131657;27;20677;-56
2022/07/08 04:32:15;;;;;;;2.30;1.58;;;;;;;16.21;82.89;97694.81;5133037;27;20216;-56
2022/07/08 04:34:42;;;;;;;2.00;1.70;;;;;;;16.33;81.24;97702.44;5131873;27;20204;-56
2022/07/08 04:37:08;;;;;;;1.67;1.67;;;;;;;16.51;79.79;97693.59;5132764;27;20200;-58
2022/07/08 04:39:35;;;;;;;2.30;1.70;;;;;;;16.41;81.70;97699.84;5133157;27;20220;-58
2022/07/08 04:42:02;;;;;;;2.43;1.60;;;;;;;16.38;82.85;97701.97;5132348;27;20224;-57
2022/07/08 04:44:29;;;;;;;1.33;1.30;;;;;;;16.34;83.40;97700.59;5132716;27;20228;-57
2022/07/08 04:46:57;;;;;;;2.57;1.80;;;;;;;16.41;80.55;97704.34;5132623;27;20235;-57
2022/07/08 04:49:25;;;;;;;1.90;1.80;;;;;;;16.58;79.45;97698.16;5132699;27;20200;-57
2022/07/08 04:51:52;;;;;;;1.53;1.43;;;;;;;16.70;79.08;97698.78;5131009;27;20224;-57
2022/07/08 04:54:19;;;;;;;1.60;1.50;;;;;;;16.66;79.52;97702.75;5132380;27;20208;-58
2022/07/08 04:56:47;;;;;;;2.30;1.90;;;;;;;16.61;79.20;97711.25;5133052;27;20192;-57
2022/07/08 04:59:13;;;;;;;1.50;1.43;;;;;;;16.48;83.22;97713.41;5132240;27;20208;-57
2022/07/08 05:01:40;;;;;;;1.90;1.60;;;;;;;16.42;83.31;97716.69;5137108;27;20327;-58
2022/07/08 05:04:08;;;;;;;2.23;1.70;;;;;;;16.66;81.42;97710.75;5143054;27;20196;-57
2022/07/08 05:06:34;;;;;;;1.57;1.47;;;;;;;16.82;78.45;97711.75;5139541;28;20235;-57
2022/07/08 05:09:01;;;;;;;1.77;1.67;;;;;;;16.99;79.03;97718.03;5136182;28;20587;-57
2022/07/08 05:11:28;;;;;;;1.60;1.50;;;;;;;17.04;78.66;97726.41;5153377;28;20620;-57
2022/07/08 05:13:55;;;;;;;4.65;1.77;;;;;;;17.03;80.05;97729.25;5153117;27;20201;-58
2022/07/08 05:16:21;;;;;;;2.35;1.75;;;;;;;17.19;76.77;97724.84;5136579;28;20253;-55
2022/07/08 05:18:48;;;;;;;1.50;1.40;;;;;;;17.41;75.70;97734.16;5132081;28;20284;-57
2022/07/08 05:21:18;;;;;;;2.35;1.70;;;;;;;17.63;73.44;97728.28;5132866;27;20239;-57
2022/07/08 05:23:45;;;;;;;2.33;1.45;;;;;;;17.88;72.29;97738.09;5131700;28;20202;-56
2022/07/08 05:26:12;;;;;;;3.33;1.98;;;;;;;18.13;70.97;97730.13;5132547;28;20208;-57
2022/07/08 05:28:39;;;;;;;1.80;1.60;;;;;;;18.31;69.54;97733.53;5132461;28;20200;-58
2022/07/08 05:31:06;;;;;;;2.70;1.60;;;;;;;18.51;69.04;97732.22;5131793;28;20196;-57
2022/07/08 05:33:32;;;;;;;1.60;1.50;;;;;;;18.69;69.02;97737.44;5130541;28;20227;-56
2022/07/08 05:35:59;;;;;;;1.60;1.50;;;;;;;18.73;67.43;97734.25;5132742;27;20296;-56
2022/07/08 05:38:27;;;;;;;3.03;1.30;;;;;;;18.55;67.99;97736.25;5134380;28;20204;-57
2022/07/08 05:40:54;;;;;;;2.58;1.60;;;;;;;18.39;68.79;97733.50;5153709;27;20216;-57
2022/07/08 05:43:22;;;;;;;1.98;1.42;;;;;;;18.61;67.93;97730.22;5148976;27;20231;-57
2022/07/08 05:45:49;;;;;;;1.50;1.40;;;;;;;18.57;67.72;97728.88;5144631;27;20204;-57
2022/07/08 05:48:15;;;;;;;1.85;1.15;;;;;;;18.54;69.28;97733.72;5138130;27;20220;-57
2022/07/08 05:50:42;;;;;;;2.13;1.40;;;;;;;18.85;67.78;97721.34;5136690;27;20222;-57
2022/07/08 05:53:09;;;;;;;1.42;1.33;;;;;;;19.14;68.80;97732.38;5137416;27;20205;-56
2022/07/08 05:55:39;;;;;;;2.10;1.70;;;;;;;19.24;65.77;97740.22;5135879;27;20232;-56
2022/07/08 05:58:06;;;;;;;1.58;1.45;;;;;;;19.25;65.25;97728.50;5136198;27;20901;-56
2022/07/08 06:00:34;;;;;;;2.00;1.70;;;;;;;19.52;65.64;97733.50;5136152;27;20200;-55
2022/07/08 06:03:05;;;;;;;3.25;1.80;;;;;;;19.60;65.59;97733.47;5136107;27;20818;-57
2022/07/08 06:05:34;;;;;;;3.03;1.73;;;;;;;19.55;64.86;97735.84;5135912;27;20196;-56
2022/07/08 06:08:03;;;;;;;2.88;1.50;;;;;;;19.63;63.74;97746.53;5134663;27;20228;-56
2022/07/08 06:10:31;;;;;;;2.10;1.65;;;;;;;19.68;65.34;97736.13;5133204;27;20204;-56
2022/07/08 06:12:59;;;;;;;1.48;1.38;;;;;;;19.91;65.17;97744.25;5136031;27;20227;-56
2022/07/08 06:15:26;;;;;;;1.40;1.30;;;;;;;20.23;64.82;97738.72;5135234;27;20235;-57
2022/07/08 06:17:54;;;;;;;1.60;1.50;;;;;;;20.10;64.00;97740.31;5135817;27;21325;-56
2022/07/08 06:20:22;;;;;;;1.63;1.52;;;;;;;20.14;63.63;97736.25;5136472;27;20323;-56
2022/07/08 06:22:50;;;;;;;2.15;1.80;;;;;;;20.52;62.92;97737.22;5133533;27;20621;-56
2022/07/08 06:25:17;;;;;;;2.38;1.42;;;;;;;20.89;63.69;97742.66;5136702;27;20204;-55
2022/07/08 06:27:45;;;;;;;1.55;1.45;;;;;;;21.15;59.40;97745.00;5135780;27;20599;-55
2022/07/08 06:30:15;;;;;;;2.28;1.50;;;;;;;21.30;59.61;97743.16;5135576;27;20636;-55
2022/07/08 06:32:44;;;;;;;2.30;1.52;;;;;;;21.33;59.26;97746.31;5135246;27;20239;-57
2022/07/08 06:35:11;;;;;;;3.80;1.85;;;;;;;20.72;59.90;97752.72;5135589;27;20204;-56
2022/07/08 06:37:38;;;;;;;2.10;1.60;;;;;;;20.45;60.68;97750.53;5135318;27;20628;-56
2022/07/08 06:40:06;;;;;;;2.17;1.77;;;;;;;20.22;60.75;97757.72;5135283;27;20671;-55
2022/07/08 06:42:32;;;;;;;2.00;1.60;;;;;;;19.96;63.54;97757.16;5135585;27;20224;-56
2022/07/08 06:45:02;;;;;;;3.00;2.00;;;;;;;20.35;60.91;97749.94;5135374;27;20216;-56
2022/07/08 06:47:31;;;;;;;6.28;1.83;;;;;;;20.08;61.43;97750.41;5134556;27;20521;-56
2022/07/08 06:49:58;;;;;;;7.55;2.22;;;;;;;20.38;60.73;97746.88;5135192;27;20192;-56
2022/07/08 06:52:26;;;;;;;2.60;1.80;;;;;;;20.68;60.33;97755.94;5134422;27;20292;-56
2022/07/08 06:54:53;;;;;;;1.85;1.60;;;;;;;21.10;58.41;97750.03;5133722;27;20204;-56
2022/07/08 06:57:22;;;;;;;3.05;1.90;;;;;;;21.27;56.84;97752.44;5133940;27;20203;-56
2022/07/08 06:59:50;;;;;;;3.67;1.90;;;;;;;20.95;58.31;97757.22;5134131;27;20243;-55
2022/07/08 07:02:17;;;;;;;2.33;1.95;;;;;;;20.39;60.02;97753.09;5133936;27;20544;-55
2022/07/08 07:04:45;;;;;;;4.18;1.90;;;;;;;20.63;60.51;97759.16;5134820;27;20532;-56
2022/07/08 07:07:12;;;;;;;3.25;1.90;;;;;;;20.48;60.64;97752.88;5135358;27;20204;-56
2022/07/08 07:09:40;;;;;;;2.03;1.83;;;;;;;20.40;60.25;97752.09;5134302;27;20219;-54
2022/07/08 07:12:09;;;;;;;4.82;1.88;;;;;;;20.53;60.51;97753.19;5134061;27;20200;-55
2022/07/08 07:14:36;;;;;;;3.30;1.90;;;;;;;20.91;60.02;97748.69;5135073;27;20204;-56
2022/07/08 07:17:04;;;;;;;3.33;2.05;;;;;;;21.27;57.52;97747.03;5134475;27;20225;-54
2022/07/08 07:19:31;;;;;;;2.88;1.85;;;;;;;21.64;56.85;97743.47;5135150;27;20204;-55
2022/07/08 07:21:59;;;;;;;2.35;1.63;;;;;;;22.10;56.40;97740.56;5133577;27;20224;-55
2022/07/08 07:24:27;;;;;;;3.63;1.90;;;;;;;22.16;57.17;97737.97;5134478;27;20256;-54
2022/07/08 07:26:56;;;;;;;3.42;1.83;;;;;;;21.94;56.98;97733.53;5133388;27;20235;-55
2022/07/08 07:29:23;;;;;;;2.92;1.90;;;;;;;22.16;57.58;97734.44;5134396;27;20216;-55
2022/07/08 07:31:50;;;;;;;2.72;1.98;;;;;;;22.25;55.52;97731.41;5134201;27;20200;-57
2022/07/08 07:34:17;;;;;;;6.22;1.88;;;;;;;21.95;56.19;97729.81;5139958;27;20220;-56
2022/07/08 07:36:44;;;;;;;4.55;2.28;;;;;;;22.36;55.55;97738.19;5137749;27;20224;-56
2022/07/08 07:39:14;;;;;;;6.85;2.13;;;;;;;22.17;55.22;97745.03;5135130;27;20200;-55
2022/07/08 07:41:41;;;;;;;2.42;1.85;;;;;;;21.77;55.28;97740.13;5135802;27;20223;-55
2022/07/08 07:44:07;;;;;;;2.97;2.13;;;;;;;21.45;55.43;97744.00;5141654;27;20234;-55
2022/07/08 07:46:34;;;;;;;2.03;1.85;;;;;;;21.54;56.41;97734.81;5146486;27;20853;-54
2022/07/08 07:49:01;;;;;;;2.10;1.88;;;;;;;21.19;57.53;97738.19;5138720;27;20213;-55
2022/07/08 07:51:29;;;;;;;4.53;2.08;;;;;;;21.86;55.96;97738.97;5133713;27;20224;-54
2022/07/08 07:53:55;;;;;;;5.03;2.03;;;;;;;21.61;56.89;97743.81;5133944;27;20517;-54
2022/07/08 07:56:24;;;;;;;2.50;1.77;;;;;;;21.31;56.19;97748.34;5138456;27;20200;-55
2022/07/08 07:58:51;;;;;;;4.07;1.80;;;;;;;21.13;55.19;97736.25;5138807;27;20208;-55
2022/07/08 08:01:17;;;;;;;4.88;2.20;;;;;;;21.18;57.15;97742.78;5135989;27;20211;-55
2022/07/08 08:03:44;;;;;;;5.60;2.38;;;;;;;20.80;58.67;97741.88;5132647;27;20231;-55
2022/07/08 08:06:11;;;;;;;3.90;2.08;;;;;;;20.88;56.70;97740.13;5133101;27;20228;-54
2022/07/08 08:08:37;;;;;;;3.30;1.83;;;;;;;20.94;59.70;97750.19;5133318;27;20215;-56
2022/07/08 08:11:04;;;;;;;3.25;2.10;;;;;;;20.66;57.16;97745.34;5133717;27;20204;-56
2022/07/08 08:13:35;;;;;;;4.93;1.80;;;;;;;20.95;59.08;97747.31;5133149;27;20280;-54
2022/07/08 08:16:05;;;;;;;3.63;1.98;;;;;;;20.87;59.27;97746.56;5133964;27;20534;-57
2022/07/08 08:18:31;;;;;;;5.57;2.08;;;;;;;20.83;57.76;97754.16;5133278;27;20196;-55
2022/07/08 08:21:02;;;;;;;5.32;2.33;;;;;;;20.78;57.40;97751.16;5133423;27;20611;-54
2022/07/08 08:23:28;;;;;;;4.20;2.30;;;;;;;20.69;57.78;97744.97;5133486;27;20564;-55
2022/07/08 08:25:56;;;;;;;3.55;2.05;;;;;;;20.44;58.34;97745.34;5132448;27;20644;-57
2022/07/08 08:28:24;;;;;;;6.97;2.17;;;;;;;20.52;56.96;97747.97;5132682;27;20710;-57
2022/07/08 08:30:52;;;;;;;3.20;2.42;;;;;;;20.73;58.24;97754.38;5132659;27;20391;-56
2022/07/08 08:33:20;;;;;;;4.28;1.95;;;;;;;21.26;58.05;97745.38;5133032;27;20208;-54
2022/07/08 08:35:51;;;;;;;7.68;2.70;;;;;;;21.80;56.23;97743.28;5133367;27;20204;-55
2022/07/08 08:38:18;;;;;;;7.15;2.20;;;;;;;22.17;56.06;97741.50;5133077;27;20231;-55
2022/07/08 08:40:49;;;;;;;3.30;2.05;;;;;;;22.47;55.12;97740.38;5138795;27;20211;-56
2022/07/08 08:43:17;;;;;;;4.07;2.10;;;;;;;22.90;53.82;97743.13;5140993;27;20706;-57
2022/07/08 08:45:49;;;;;;;4.55;2.17;;;;;;;22.96;51.65;97739.63;5139395;27;20201;-56
2022/07/08 08:48:17;;;;;;;3.00;2.00;;;;;;;23.17;49.83;97734.22;5133540;27;20272;-56
2022/07/08 08:50:55;;;;;;;1.88;1.70;;;;;;;23.18;52.12;97742.13;5132801;27;20235;-57
2022/07/08 08:53:25;;;;;;;3.28;1.88;;;;;;;23.42;51.31;97740.88;5131858;27;20228;-56
2022/07/08 08:55:54;;;;;;;3.05;1.92;;;;;;;23.75;49.93;97736.53;5132256;27;20208;-57
2022/07/08 08:58:24;;;;;;;4.40;2.22;;;;;;;23.84;49.97;97729.09;5132981;27;20193;-57
2022/07/08 09:00:51;;;;;;;4.38;2.33;;;;;;;24.01;49.53;97729.59;5133474;27;20196;-55
2022/07/08 09:03:19;;;;;;;2.20;2.00;;;;;;;23.91;47.26;97729.97;5137293;27;20230;-56
2022/07/08 09:05:48;;;;;;;3.83;2.00;;;;;;;24.17;47.31;97731.97;5134295;28;20330;-56
2022/07/08 09:08:15;;;;;;;4.38;2.00;;;;;;;24.27;48.91;97735.94;5134883;27;20222;-56
2022/07/08 09:10:43;;;;;;;4.07;2.22;;;;;;;24.20;47.24;97728.84;5133888;28;20196;-56
2022/07/08 09:13:11;;;;;;;5.90;2.20;;;;;;;24.39;48.53;97721.84;5131543;28;20628;-56
2022/07/08 09:15:41;;;;;;;3.75;2.03;;;;;;;24.77;46.28;97722.97;5132405;27;20208;-56
2022/07/08 09:18:10;;;;;;;1.85;1.52;;;;;;;24.77;47.50;97725.69;5136786;27;20216;-56
2022/07/08 09:20:43;;;;;;;3.65;1.80;;;;;;;24.85;44.39;97722.81;5137403;27;20239;-58
2022/07/08 09:23:14;;;;;;;4.65;1.77;;;;;;;24.68;46.57;97733.16;5136372;27;21535;-56
2022/07/08 09:25:42;;;;;;;4.07;1.88;;;;;;;24.68;47.33;97732.34;5137186;27;20184;-57
2022/07/08 09:28:09;;;;;;;2.88;1.80;;;;;;;24.60;48.20;97724.41;5136564;27;20224;-55
2022/07/08 09:30:36;;;;;;;4.05;2.22;;;;;;;24.71;46.11;97727.34;5145615;27;20208;-57
2022/07/08 09:33:03;;;;;;;2.65;1.77;;;;;;;24.23;47.09;97725.78;5148750;27;20193;-57
2022/07/08 09:35:35;;;;;;;3.38;1.73;;;;;;;24.36;48.03;97723.09;5151175;27;20212;-55
2022/07/08 09:38:04;;;;;;;3.05;1.65;;;;;;;24.59;48.49;97728.13;5151429;27;20199;-56
2022/07/08 09:40:31;;;;;;;3.83;1.67;;;;;;;24.85;46.77;97727.38;5147326;27;20200;-57
2022/07/08 09:43:01;;;;;;;2.50;1.70;;;;;;;24.89;45.95;97731.34;5144492;27;20235;-56
2022/07/08 09:45:34;;;;;;;2.45;1.63;;;;;;;25.23;47.25;97723.03;5147980;27;20200;-56
2022/07/08 09:48:02;;;;;;;3.13;1.77;;;;;;;25.06;44.74;97725.31;5143223;27;20231;-54
2022/07/08 09:50:35;;;;;;;3.83;1.80;;;;;;;25.12;43.10;97723.63;5142209;27;20189;-56
2022/07/08 09:53:11;;;;;;;2.50;1.80;;;;;;;24.09;43.29;97730.22;5135780;27;20216;-56
2022/07/08 09:55:40;;;;;;;2.28;1.40;;;;;;;23.48;46.84;97734.69;5136753;27;20216;-56
2022/07/08 09:58:09;;;;;;;5.28;2.05;;;;;;;23.04;47.95;97728.72;5137106;27;20628;-56
2022/07/08 10:00:36;;;;;;;2.92;1.73;;;;;;;23.03;45.71;97729.72;5135999;27;20932;-57
2022/07/08 10:03:06;;;;;;;2.92;1.77;;;;;;;23.04;50.67;97721.47;5135446;27;20243;-56
2022/07/08 10:05:32;;;;;;;3.25;1.98;;;;;;;23.27;48.79;97723.94;5142165;27;20207;-55
2022/07/08 10:08:00;;;;;;;1.63;1.45;;;;;;;23.81;48.57;97720.56;5154564;27;20219;-55
2022/07/08 10:10:28;;;;;;;2.42;1.20;;;;;;;24.10;44.57;97718.41;5148819;27;20201;-57
2022/07/08 10:12:58;;;;;;;1.45;1.10;;;;;;;24.30;44.35;97723.09;5150196;27;20200;-56
2022/07/08 10:15:25;;;;;;;2.17;1.25;;;;;;;24.47;43.91;97722.50;5143748;27;20215;-56
2022/07/08 10:17:54;;;;;;;1.67;1.52;;;;;;;24.74;45.02;97731.50;5149291;27;20203;-55
2022/07/08 10:20:24;;;;;;;2.95;1.38;;;;;;;24.97;42.40;97717.63;5147059;27;20193;-56
2022/07/08 10:23:07;;;;;;;1.77;1.38;;;;;;;25.06;43.04;97713.66;5152745;27;20223;-56
2022/07/08 10:25:35;;;;;;;1.63;1.50;;;;;;;25.16;41.40;97714.91;5151307;27;20260;-57
2022/07/08 10:28:08;;;;;;;2.03;1.50;;;;;;;25.32;40.95;97705.53;5146524;27;20193;-55
2022/07/08 10:30:47;;;;;;;2.38;1.52;;;;;;;25.59;42.61;97701.75;5151877;27;20199;-56
2022/07/08 10:33:20;;;;;;;2.88;1.27;;;;;;;25.78;41.79;97708.19;5144130;27;20226;-57
2022/07/08 10:36:04;;;;;;;2.22;1.50;;;;;;;25.99;41.67;97709.78;5134646;27;20204;-57
2022/07/08 10:38:31;;;;;;;1.70;1.48;;;;;;;26.09;39.76;97710.16;5134886;27;20228;-58
2022/07/08 10:41:04;;;;;;;1.55;1.27;;;;;;;26.23;40.73;97703.66;5134903;27;21392;-55
2022/07/08 10:43:31;;;;;;;2.00;1.60;;;;;;;26.37;39.93;97697.09;5134655;27;20236;-56
2022/07/08 10:46:12;;;;;;;2.75;1.30;;;;;;;26.29;39.15;97702.78;5134493;27;20674;-55
2022/07/08 10:48:55;;;;;;;2.10;1.48;;;;;;;26.25;37.61;97706.16;5135780;27;20525;-57
2022/07/08 10:51:50;;;;;;;2.05;1.40;;;;;;;26.05;39.84;97701.59;5135891;27;20208;-57
2022/07/08 10:54:28;;;;;;;3.72;1.55;;;;;;;26.04;37.44;97701.84;5134294;27;20523;-57
2022/07/08 10:56:58;;;;;;;2.08;1.60;;;;;;;26.17;40.44;97704.47;5134765;27;20204;-55
2022/07/08 10:59:26;;;;;;;1.67;1.30;;;;;;;26.05;35.50;97706.19;5134522;27;20306;-57
2022/07/08 11:01:56;;;;;;;1.33;0.85;;;;;;;26.09;36.80;97704.72;5133481;27;20192;-56
2022/07/08 11:04:29;;;;;;;1.77;1.00;;;;;;;26.13;38.04;97695.94;5134886;27;20640;-56
2022/07/08 11:06:56;;;;;;;1.67;1.20;;;;;;;26.03;37.49;97694.75;5134933;27;20230;-55
2022/07/08 11:09:24;;;;;;;1.40;1.08;;;;;;;26.16;37.47;97691.97;5134906;27;20192;-56
2022/07/08 11:11:51;;;;;;;1.80;1.35;;;;;;;26.34;39.10;97696.69;5134188;27;20208;-57
2022/07/08 11:14:19;;;;;;;3.90;1.40;;;;;;;26.54;37.43;97698.25;5134081;27;20635;-56
2022/07/08 11:16:46;;;;;;;1.15;1.05;;;;;;;26.55;36.54;97702.63;5133849;27;20224;-56
2022/07/08 11:19:13;;;;;;;1.20;1.10;;;;;;;26.54;36.62;97698.25;5134163;27;20205;-58
2022/07/08 11:21:39;;;;;;;1.67;1.30;;;;;;;26.44;34.77;97697.91;5134479;27;20227;-57
2022/07/08 11:24:06;;;;;;;2.92;1.45;;;;;;;26.54;38.05;97700.97;5134442;27;20228;-56
2022/07/08 11:26:33;;;;;;;2.17;1.20;;;;;;;26.83;39.30;97690.56;5134595;27;20216;-57
2022/07/08 11:29:00;;;;;;;2.42;1.30;;;;;;;26.62;36.84;97695.28;5133995;27;20256;-56
2022/07/08 11:31:28;;;;;;;2.05;1.23;;;;;;;26.57;35.28;97692.38;5134178;27;20209;-58
2022/07/08 11:33:55;;;;;;;2.58;1.27;;;;;;;26.79;39.07;97694.75;5133929;27;20643;-56
2022/07/08 11:36:22;;;;;;;1.33;1.08;;;;;;;26.58;39.00;97683.19;5134521;27;20220;-57
2022/07/08 11:38:49;;;;;;;2.13;1.50;;;;;;;26.72;39.01;97692.91;5133956;27;20299;-57
2022/07/08 11:41:19;;;;;;;1.27;1.17;;;;;;;26.81;38.96;97687.22;5133295;27;20528;-56
2022/07/08 11:43:46;;;;;;;1.40;0.90;;;;;;;27.01;39.36;97677.06;5135335;27;20239;-56